sensor_id;sensor_type;location;lat;lon;timestamp;P1;durP1;ratioP1;P2;durP2;ratioP2
665;SDS011;315;48.738;9.126;2022-08-19T00:01:36;18.80;;;16.90;;
665;SDS011;315;48.738;9.126;2022-08-19T00:04:03;18.67;;;17.03;;
665;SDS011;315;48.738;9.126;2022-08-19T00:06:30;19.20;;;17.17;;
665;SDS011;315;48.738;9.126;2022-08-19T00:08:56;17.70;;;16.07;;
665;SDS011;315;48.738;9.126;2022-08-19T00:11:25;19.77;;;17.97;;
665;SDS011;315;48.738;9.126;2022-08-19T00:13:52;18.10;;;16.60;;
665;SDS011;315;48.738;9.126;2022-08-19T00:16:19;20.63;;;18.63;;
665;SDS011;315;48.738;9.126;2022-08-19T00:18:45;20.30;;;18.33;;
665;SDS011;315;48.738;9.126;2022-08-19T00:21:11;18.00;;;16.40;;
665;SDS011;315;48.738;9.126;2022-08-19T00:23:37;20.37;;;18.47;;
665;SDS011;315;48.738;9.126;2022-08-19T00:26:03;20.13;;;18.27;;
665;SDS011;315;48.738;9.126;2022-08-19T00:28:29;18.50;;;16.70;;
665;SDS011;315;48.738;9.126;2022-08-19T00:30:55;19.80;;;17.80;;
665;SDS011;315;48.738;9.126;2022-08-19T00:33:21;19.17;;;17.53;;
665;SDS011;315;48.738;9.126;2022-08-19T00:35:46;18.57;;;16.87;;
665;SDS011;315;48.738;9.126;2022-08-19T00:38:12;19.30;;;17.43;;
665;SDS011;315;48.738;9.126;2022-08-19T00:40:38;19.00;;;17.20;;
665;SDS011;315;48.738;9.126;2022-08-19T00:43:08;19.57;;;17.77;;
665;SDS011;315;48.738;9.126;2022-08-19T00:45:35;21.43;;;19.20;;
665;SDS011;315;48.738;9.126;2022-08-19T00:48:01;19.30;;;17.40;;
665;SDS011;315;48.738;9.126;2022-08-19T00:50:29;17.87;;;16.17;;
665;SDS011;315;48.738;9.126;2022-08-19T00:52:55;20.30;;;18.50;;
665;SDS011;315;48.738;9.126;2022-08-19T00:55:23;19.07;;;17.37;;
665;SDS011;315;48.738;9.126;2022-08-19T00:57:54;18.47;;;16.73;;
665;SDS011;315;48.738;9.126;2022-08-19T01:00:23;18.70;;;17.10;;
665;SDS011;315;48.738;9.126;2022-08-19T01:02:49;19.50;;;17.67;;
665;SDS011;315;48.738;9.126;2022-08-19T01:05:16;18.90;;;17.10;;
665;SDS011;315;48.738;9.126;2022-08-19T01:07:45;18.30;;;16.63;;
665;SDS011;315;48.738;9.126;2022-08-19T01:10:14;19.10;;;17.40;;
665;SDS011;315;48.738;9.126;2022-08-19T01:12:43;19.90;;;17.83;;
665;SDS011;315;48.738;9.126;2022-08-19T01:15:10;18.93;;;17.23;;
665;SDS011;315;48.738;9.126;2022-08-19T01:17:38;20.07;;;18.07;;
665;SDS011;315;48.738;9.126;2022-08-19T01:20:05;19.60;;;17.83;;
665;SDS011;315;48.738;9.126;2022-08-19T01:25:43;20.93;;;18.97;;
665;SDS011;315;48.738;9.126;2022-08-19T01:28:15;20.70;;;18.57;;
665;SDS011;315;48.738;9.126;2022-08-19T01:30:43;19.67;;;17.87;;
665;SDS011;315;48.738;9.126;2022-08-19T01:33:09;19.53;;;17.63;;
665;SDS011;315;48.738;9.126;2022-08-19T01:35:35;18.97;;;17.37;;
665;SDS011;315;48.738;9.126;2022-08-19T01:38:03;20.33;;;18.53;;
665;SDS011;315;48.738;9.126;2022-08-19T01:40:33;22.80;;;20.60;;
665;SDS011;315;48.738;9.126;2022-08-19T01:43:02;20.13;;;18.13;;
665;SDS011;315;48.738;9.126;2022-08-19T01:45:29;20.70;;;18.83;;
665;SDS011;315;48.738;9.126;2022-08-19T01:47:56;19.87;;;17.93;;
665;SDS011;315;48.738;9.126;2022-08-19T01:50:22;20.70;;;18.73;;
665;SDS011;315;48.738;9.126;2022-08-19T01:52:49;20.60;;;18.40;;
665;SDS011;315;48.738;9.126;2022-08-19T01:55:16;22.30;;;20.30;;
665;SDS011;315;48.738;9.126;2022-08-19T01:57:46;21.67;;;19.47;;
665;SDS011;315;48.738;9.126;2022-08-19T02:00:15;22.00;;;19.80;;
665;SDS011;315;48.738;9.126;2022-08-19T02:02:43;21.37;;;19.40;;
665;SDS011;315;48.738;9.126;2022-08-19T02:05:09;20.53;;;18.63;;
665;SDS011;315;48.738;9.126;2022-08-19T02:07:35;21.97;;;20.00;;
665;SDS011;315;48.738;9.126;2022-08-19T02:10:06;20.00;;;18.00;;
665;SDS011;315;48.738;9.126;2022-08-19T02:12:34;22.60;;;20.60;;
665;SDS011;315;48.738;9.126;2022-08-19T02:15:00;22.80;;;20.70;;
665;SDS011;315;48.738;9.126;2022-08-19T02:17:27;21.97;;;19.87;;
665;SDS011;315;48.738;9.126;2022-08-19T02:19:54;21.17;;;19.17;;
665;SDS011;315;48.738;9.126;2022-08-19T02:22:21;23.00;;;20.90;;
665;SDS011;315;48.738;9.126;2022-08-19T02:24:47;22.87;;;20.70;;
665;SDS011;315;48.738;9.126;2022-08-19T02:27:13;24.17;;;21.60;;
665;SDS011;315;48.738;9.126;2022-08-19T02:29:39;23.00;;;20.83;;
665;SDS011;315;48.738;9.126;2022-08-19T02:32:05;22.47;;;20.27;;
665;SDS011;315;48.738;9.126;2022-08-19T02:34:31;23.53;;;21.40;;
665;SDS011;315;48.738;9.126;2022-08-19T02:36:57;22.97;;;20.80;;
665;SDS011;315;48.738;9.126;2022-08-19T02:39:22;24.60;;;22.40;;
665;SDS011;315;48.738;9.126;2022-08-19T02:41:48;23.70;;;21.30;;
665;SDS011;315;48.738;9.126;2022-08-19T02:44:14;23.00;;;21.00;;
665;SDS011;315;48.738;9.126;2022-08-19T02:46:40;23.40;;;21.17;;
665;SDS011;315;48.738;9.126;2022-08-19T02:49:06;24.90;;;22.50;;
665;SDS011;315;48.738;9.126;2022-08-19T02:51:34;23.57;;;21.23;;
665;SDS011;315;48.738;9.126;2022-08-19T02:54:02;21.57;;;19.67;;
665;SDS011;315;48.738;9.126;2022-08-19T02:56:28;25.63;;;22.97;;
665;SDS011;315;48.738;9.126;2022-08-19T02:58:55;26.97;;;20.77;;
665;SDS011;315;48.738;9.126;2022-08-19T03:01:26;24.03;;;21.63;;
665;SDS011;315;48.738;9.126;2022-08-19T03:03:53;22.30;;;20.23;;
665;SDS011;315;48.738;9.126;2022-08-19T03:06:20;23.60;;;21.37;;
665;SDS011;315;48.738;9.126;2022-08-19T03:08:47;24.73;;;22.23;;
665;SDS011;315;48.738;9.126;2022-08-19T03:11:18;24.57;;;22.27;;
665;SDS011;315;48.738;9.126;2022-08-19T03:13:47;23.83;;;21.73;;
665;SDS011;315;48.738;9.126;2022-08-19T03:16:14;24.17;;;21.57;;
665;SDS011;315;48.738;9.126;2022-08-19T03:18:40;25.97;;;23.00;;
665;SDS011;315;48.738;9.126;2022-08-19T03:21:06;25.77;;;23.10;;
665;SDS011;315;48.738;9.126;2022-08-19T03:23:32;26.83;;;24.07;;
665;SDS011;315;48.738;9.126;2022-08-19T03:25:58;27.57;;;24.70;;
665;SDS011;315;48.738;9.126;2022-08-19T03:28:29;26.10;;;23.30;;
665;SDS011;315;48.738;9.126;2022-08-19T03:30:59;25.03;;;22.53;;
665;SDS011;315;48.738;9.126;2022-08-19T03:33:28;24.90;;;22.33;;
665;SDS011;315;48.738;9.126;2022-08-19T03:36:05;26.93;;;24.27;;
665;SDS011;315;48.738;9.126;2022-08-19T03:38:38;25.40;;;23.00;;
665;SDS011;315;48.738;9.126;2022-08-19T03:41:11;27.43;;;25.03;;
665;SDS011;315;48.738;9.126;2022-08-19T03:43:39;26.37;;;23.97;;
665;SDS011;315;48.738;9.126;2022-08-19T03:46:07;28.37;;;25.47;;
665;SDS011;315;48.738;9.126;2022-08-19T03:48:34;26.23;;;23.87;;
665;SDS011;315;48.738;9.126;2022-08-19T03:51:01;25.00;;;22.60;;
665;SDS011;315;48.738;9.126;2022-08-19T03:53:27;29.53;;;26.63;;
665;SDS011;315;48.738;9.126;2022-08-19T03:55:54;29.07;;;26.17;;
665;SDS011;315;48.738;9.126;2022-08-19T03:58:21;28.50;;;25.60;;
665;SDS011;315;48.738;9.126;2022-08-19T04:00:48;27.77;;;24.97;;
665;SDS011;315;48.738;9.126;2022-08-19T04:03:13;29.43;;;25.10;;
665;SDS011;315;48.738;9.126;2022-08-19T04:05:39;27.90;;;25.17;;
665;SDS011;315;48.738;9.126;2022-08-19T04:08:05;29.00;;;26.13;;
665;SDS011;315;48.738;9.126;2022-08-19T04:10:34;27.50;;;24.80;;
665;SDS011;315;48.738;9.126;2022-08-19T04:13:04;28.83;;;26.00;;
665;SDS011;315;48.738;9.126;2022-08-19T04:15:31;26.40;;;23.70;;
665;SDS011;315;48.738;9.126;2022-08-19T04:18:03;27.47;;;24.70;;
665;SDS011;315;48.738;9.126;2022-08-19T04:20:31;29.23;;;26.37;;
665;SDS011;315;48.738;9.126;2022-08-19T04:22:56;27.73;;;24.93;;
665;SDS011;315;48.738;9.126;2022-08-19T04:25:22;29.00;;;26.20;;
665;SDS011;315;48.738;9.126;2022-08-19T04:27:47;30.30;;;27.37;;
665;SDS011;315;48.738;9.126;2022-08-19T04:30:13;30.07;;;27.27;;
665;SDS011;315;48.738;9.126;2022-08-19T04:32:39;29.00;;;25.90;;
665;SDS011;315;48.738;9.126;2022-08-19T04:35:05;27.90;;;25.30;;
665;SDS011;315;48.738;9.126;2022-08-19T04:37:31;29.17;;;26.47;;
665;SDS011;315;48.738;9.126;2022-08-19T04:39:58;30.87;;;27.50;;
665;SDS011;315;48.738;9.126;2022-08-19T04:42:42;31.20;;;28.00;;
665;SDS011;315;48.738;9.126;2022-08-19T04:45:10;31.67;;;28.60;;
665;SDS011;315;48.738;9.126;2022-08-19T04:47:38;31.07;;;28.00;;
665;SDS011;315;48.738;9.126;2022-08-19T04:50:05;31.50;;;28.23;;
665;SDS011;315;48.738;9.126;2022-08-19T04:52:31;30.77;;;27.67;;
665;SDS011;315;48.738;9.126;2022-08-19T04:54:57;30.13;;;27.13;;
665;SDS011;315;48.738;9.126;2022-08-19T04:57:23;26.67;;;24.07;;
665;SDS011;315;48.738;9.126;2022-08-19T04:59:49;30.13;;;27.33;;
665;SDS011;315;48.738;9.126;2022-08-19T05:02:19;28.83;;;25.83;;
665;SDS011;315;48.738;9.126;2022-08-19T05:04:45;29.60;;;26.70;;
665;SDS011;315;48.738;9.126;2022-08-19T05:07:10;25.53;;;23.23;;
665;SDS011;315;48.738;9.126;2022-08-19T05:09:36;28.23;;;25.53;;
665;SDS011;315;48.738;9.126;2022-08-19T05:12:02;30.67;;;27.53;;
665;SDS011;315;48.738;9.126;2022-08-19T05:14:27;31.37;;;28.07;;
665;SDS011;315;48.738;9.126;2022-08-19T05:16:53;32.27;;;28.77;;
665;SDS011;315;48.738;9.126;2022-08-19T05:19:19;30.27;;;27.37;;
665;SDS011;315;48.738;9.126;2022-08-19T05:22:03;32.03;;;28.83;;
665;SDS011;315;48.738;9.126;2022-08-19T05:24:47;30.37;;;27.27;;
665;SDS011;315;48.738;9.126;2022-08-19T05:27:13;30.23;;;27.23;;
665;SDS011;315;48.738;9.126;2022-08-19T05:29:39;30.07;;;27.37;;
665;SDS011;315;48.738;9.126;2022-08-19T05:32:05;28.93;;;26.03;;
665;SDS011;315;48.738;9.126;2022-08-19T05:34:33;28.10;;;25.57;;
665;SDS011;315;48.738;9.126;2022-08-19T05:37:00;29.37;;;26.60;;
665;SDS011;315;48.738;9.126;2022-08-19T05:39:28;26.43;;;23.90;;
665;SDS011;315;48.738;9.126;2022-08-19T05:41:59;29.60;;;26.60;;
665;SDS011;315;48.738;9.126;2022-08-19T05:44:28;30.43;;;27.37;;
665;SDS011;315;48.738;9.126;2022-08-19T05:46:56;31.40;;;28.13;;
665;SDS011;315;48.738;9.126;2022-08-19T05:49:23;27.80;;;25.00;;
665;SDS011;315;48.738;9.126;2022-08-19T05:51:49;28.40;;;25.73;;
665;SDS011;315;48.738;9.126;2022-08-19T05:54:15;29.20;;;26.47;;
665;SDS011;315;48.738;9.126;2022-08-19T05:56:41;29.80;;;26.80;;
665;SDS011;315;48.738;9.126;2022-08-19T05:59:08;29.97;;;27.33;;
665;SDS011;315;48.738;9.126;2022-08-19T06:01:39;29.37;;;26.37;;
665;SDS011;315;48.738;9.126;2022-08-19T06:04:06;28.80;;;25.93;;
665;SDS011;315;48.738;9.126;2022-08-19T06:06:32;30.33;;;27.57;;
665;SDS011;315;48.738;9.126;2022-08-19T06:09:00;27.63;;;25.03;;
665;SDS011;315;48.738;9.126;2022-08-19T06:11:33;30.17;;;27.33;;
665;SDS011;315;48.738;9.126;2022-08-19T06:14:03;29.43;;;26.57;;
665;SDS011;315;48.738;9.126;2022-08-19T06:16:38;30.17;;;27.20;;
665;SDS011;315;48.738;9.126;2022-08-19T06:19:07;30.40;;;27.40;;
665;SDS011;315;48.738;9.126;2022-08-19T06:21:35;30.13;;;26.97;;
665;SDS011;315;48.738;9.126;2022-08-19T06:24:03;30.03;;;27.10;;
665;SDS011;315;48.738;9.126;2022-08-19T06:26:34;29.83;;;26.93;;
665;SDS011;315;48.738;9.126;2022-08-19T06:29:02;28.07;;;25.43;;
665;SDS011;315;48.738;9.126;2022-08-19T06:31:30;29.67;;;26.80;;
665;SDS011;315;48.738;9.126;2022-08-19T06:33:58;30.07;;;27.17;;
665;SDS011;315;48.738;9.126;2022-08-19T06:36:26;29.57;;;26.77;;
665;SDS011;315;48.738;9.126;2022-08-19T06:38:57;28.90;;;26.17;;
665;SDS011;315;48.738;9.126;2022-08-19T06:41:24;28.50;;;25.90;;
665;SDS011;315;48.738;9.126;2022-08-19T06:43:50;29.67;;;26.80;;
665;SDS011;315;48.738;9.126;2022-08-19T06:46:17;28.20;;;25.67;;
665;SDS011;315;48.738;9.126;2022-08-19T06:48:46;29.37;;;26.47;;
665;SDS011;315;48.738;9.126;2022-08-19T06:51:16;27.23;;;24.83;;
665;SDS011;315;48.738;9.126;2022-08-19T06:53:45;31.27;;;28.20;;
665;SDS011;315;48.738;9.126;2022-08-19T06:56:13;30.90;;;27.70;;
665;SDS011;315;48.738;9.126;2022-08-19T06:58:41;32.40;;;29.20;;
665;SDS011;315;48.738;9.126;2022-08-19T07:01:06;29.60;;;26.60;;
665;SDS011;315;48.738;9.126;2022-08-19T07:03:33;30.77;;;27.87;;
665;SDS011;315;48.738;9.126;2022-08-19T07:06:04;29.20;;;26.40;;
665;SDS011;315;48.738;9.126;2022-08-19T07:08:35;33.27;;;29.80;;
665;SDS011;315;48.738;9.126;2022-08-19T07:11:06;29.93;;;27.23;;
665;SDS011;315;48.738;9.126;2022-08-19T07:13:33;31.00;;;27.80;;
665;SDS011;315;48.738;9.126;2022-08-19T07:16:05;31.27;;;28.07;;
665;SDS011;315;48.738;9.126;2022-08-19T07:18:32;28.67;;;26.03;;
665;SDS011;315;48.738;9.126;2022-08-19T07:23:33;31.33;;;28.30;;
665;SDS011;315;48.738;9.126;2022-08-19T07:26:04;27.00;;;24.50;;
665;SDS011;315;48.738;9.126;2022-08-19T07:28:31;30.07;;;27.23;;
665;SDS011;315;48.738;9.126;2022-08-19T07:30:56;29.23;;;26.33;;
665;SDS011;315;48.738;9.126;2022-08-19T07:33:22;30.43;;;27.50;;
665;SDS011;315;48.738;9.126;2022-08-19T07:35:47;27.97;;;25.33;;
665;SDS011;315;48.738;9.126;2022-08-19T07:38:15;31.77;;;28.63;;
665;SDS011;315;48.738;9.126;2022-08-19T07:40:41;29.87;;;26.97;;
665;SDS011;315;48.738;9.126;2022-08-19T07:43:07;29.70;;;26.53;;
665;SDS011;315;48.738;9.126;2022-08-19T07:45:33;30.33;;;27.20;;
665;SDS011;315;48.738;9.126;2022-08-19T07:47:58;31.00;;;27.97;;
665;SDS011;315;48.738;9.126;2022-08-19T07:50:25;30.03;;;26.17;;
665;SDS011;315;48.738;9.126;2022-08-19T07:52:51;29.80;;;26.63;;
665;SDS011;315;48.738;9.126;2022-08-19T07:55:21;27.13;;;24.60;;
665;SDS011;315;48.738;9.126;2022-08-19T07:57:49;27.93;;;25.13;;
665;SDS011;315;48.738;9.126;2022-08-19T08:00:14;28.50;;;25.83;;
665;SDS011;315;48.738;9.126;2022-08-19T08:02:40;32.57;;;28.27;;
665;SDS011;315;48.738;9.126;2022-08-19T08:05:07;28.70;;;25.80;;
665;SDS011;315;48.738;9.126;2022-08-19T08:07:52;28.40;;;25.63;;
665;SDS011;315;48.738;9.126;2022-08-19T08:10:36;26.70;;;24.30;;
665;SDS011;315;48.738;9.126;2022-08-19T08:13:02;29.67;;;26.50;;
665;SDS011;315;48.738;9.126;2022-08-19T08:15:30;28.07;;;25.37;;
665;SDS011;315;48.738;9.126;2022-08-19T08:17:56;27.23;;;24.57;;
665;SDS011;315;48.738;9.126;2022-08-19T08:20:22;28.57;;;25.70;;
665;SDS011;315;48.738;9.126;2022-08-19T08:22:49;29.57;;;26.77;;
665;SDS011;315;48.738;9.126;2022-08-19T08:25:34;27.43;;;24.53;;
665;SDS011;315;48.738;9.126;2022-08-19T08:28:01;26.83;;;24.13;;
665;SDS011;315;48.738;9.126;2022-08-19T08:30:28;28.63;;;25.70;;
665;SDS011;315;48.738;9.126;2022-08-19T08:32:55;28.73;;;25.77;;
665;SDS011;315;48.738;9.126;2022-08-19T08:35:22;27.43;;;24.93;;
665;SDS011;315;48.738;9.126;2022-08-19T08:37:49;25.93;;;23.53;;
665;SDS011;315;48.738;9.126;2022-08-19T08:40:30;26.53;;;24.03;;
665;SDS011;315;48.738;9.126;2022-08-19T08:43:38;26.73;;;24.20;;
665;SDS011;315;48.738;9.126;2022-08-19T08:46:10;27.27;;;24.30;;
665;SDS011;315;48.738;9.126;2022-08-19T08:48:45;27.83;;;25.30;;
665;SDS011;315;48.738;9.126;2022-08-19T08:51:39;24.83;;;22.53;;
665;SDS011;315;48.738;9.126;2022-08-19T08:54:10;27.10;;;24.60;;
665;SDS011;315;48.738;9.126;2022-08-19T08:56:38;27.97;;;25.40;;
665;SDS011;315;48.738;9.126;2022-08-19T08:59:07;27.30;;;24.97;;
665;SDS011;315;48.738;9.126;2022-08-19T09:01:41;26.57;;;23.87;;
665;SDS011;315;48.738;9.126;2022-08-19T09:04:07;28.20;;;25.40;;
665;SDS011;315;48.738;9.126;2022-08-19T09:09:30;25.57;;;23.27;;
665;SDS011;315;48.738;9.126;2022-08-19T09:12:09;27.27;;;24.77;;
665;SDS011;315;48.738;9.126;2022-08-19T09:14:37;26.10;;;23.77;;
665;SDS011;315;48.738;9.126;2022-08-19T09:17:15;25.30;;;22.90;;
665;SDS011;315;48.738;9.126;2022-08-19T09:19:52;27.30;;;24.80;;
665;SDS011;315;48.738;9.126;2022-08-19T09:22:38;25.27;;;22.87;;
665;SDS011;315;48.738;9.126;2022-08-19T09:25:06;22.20;;;20.17;;
665;SDS011;315;48.738;9.126;2022-08-19T09:27:33;26.07;;;23.50;;
665;SDS011;315;48.738;9.126;2022-08-19T09:30:02;25.57;;;23.10;;
665;SDS011;315;48.738;9.126;2022-08-19T09:32:29;26.03;;;23.57;;
665;SDS011;315;48.738;9.126;2022-08-19T09:34:55;26.63;;;24.13;;
665;SDS011;315;48.738;9.126;2022-08-19T09:37:22;23.77;;;21.57;;
665;SDS011;315;48.738;9.126;2022-08-19T09:39:49;22.30;;;20.20;;
665;SDS011;315;48.738;9.126;2022-08-19T09:42:15;27.83;;;21.07;;
665;SDS011;315;48.738;9.126;2022-08-19T09:44:41;24.30;;;21.30;;
665;SDS011;315;48.738;9.126;2022-08-19T09:47:08;26.37;;;23.67;;
665;SDS011;315;48.738;9.126;2022-08-19T09:49:34;25.30;;;22.70;;
665;SDS011;315;48.738;9.126;2022-08-19T09:52:00;22.90;;;21.00;;
665;SDS011;315;48.738;9.126;2022-08-19T09:54:26;24.13;;;22.10;;
665;SDS011;315;48.738;9.126;2022-08-19T09:56:53;22.90;;;20.80;;
665;SDS011;315;48.738;9.126;2022-08-19T09:59:18;24.00;;;21.07;;
665;SDS011;315;48.738;9.126;2022-08-19T10:01:44;20.33;;;18.50;;
665;SDS011;315;48.738;9.126;2022-08-19T10:04:10;22.63;;;20.73;;
665;SDS011;315;48.738;9.126;2022-08-19T10:06:37;21.20;;;19.20;;
665;SDS011;315;48.738;9.126;2022-08-19T10:09:04;21.93;;;19.90;;
665;SDS011;315;48.738;9.126;2022-08-19T10:11:32;22.10;;;19.90;;
665;SDS011;315;48.738;9.126;2022-08-19T10:13:59;24.00;;;21.47;;
665;SDS011;315;48.738;9.126;2022-08-19T10:16:26;24.03;;;21.80;;
665;SDS011;315;48.738;9.126;2022-08-19T10:18:52;22.70;;;20.30;;
665;SDS011;315;48.738;9.126;2022-08-19T10:21:22;35.13;;;18.50;;
665;SDS011;315;48.738;9.126;2022-08-19T10:23:51;20.80;;;19.00;;
665;SDS011;315;48.738;9.126;2022-08-19T10:26:20;20.53;;;18.83;;
665;SDS011;315;48.738;9.126;2022-08-19T10:28:49;20.97;;;18.77;;
665;SDS011;315;48.738;9.126;2022-08-19T10:31:16;20.77;;;18.70;;
665;SDS011;315;48.738;9.126;2022-08-19T10:33:44;18.43;;;16.47;;
665;SDS011;315;48.738;9.126;2022-08-19T10:36:13;30.63;;;27.63;;
665;SDS011;315;48.738;9.126;2022-08-19T10:38:42;25.23;;;22.53;;
665;SDS011;315;48.738;9.126;2022-08-19T10:41:14;22.27;;;20.13;;
665;SDS011;315;48.738;9.126;2022-08-19T10:43:41;24.43;;;22.27;;
665;SDS011;315;48.738;9.126;2022-08-19T10:46:08;21.90;;;19.80;;
665;SDS011;315;48.738;9.126;2022-08-19T10:48:36;21.70;;;19.50;;
665;SDS011;315;48.738;9.126;2022-08-19T10:51:02;20.23;;;18.20;;
665;SDS011;315;48.738;9.126;2022-08-19T10:53:47;20.07;;;18.07;;
665;SDS011;315;48.738;9.126;2022-08-19T10:56:13;19.17;;;17.43;;
665;SDS011;315;48.738;9.126;2022-08-19T10:58:57;19.13;;;17.30;;
665;SDS011;315;48.738;9.126;2022-08-19T11:01:28;17.10;;;15.60;;
665;SDS011;315;48.738;9.126;2022-08-19T11:03:55;17.97;;;16.00;;
665;SDS011;315;48.738;9.126;2022-08-19T11:06:22;16.97;;;15.27;;
665;SDS011;315;48.738;9.126;2022-08-19T11:08:49;18.17;;;16.57;;
665;SDS011;315;48.738;9.126;2022-08-19T11:11:16;20.53;;;17.47;;
665;SDS011;315;48.738;9.126;2022-08-19T11:13:41;15.80;;;14.13;;
665;SDS011;315;48.738;9.126;2022-08-19T11:16:10;18.30;;;16.37;;
665;SDS011;315;48.738;9.126;2022-08-19T11:18:42;16.57;;;15.07;;
665;SDS011;315;48.738;9.126;2022-08-19T11:21:21;15.77;;;14.40;;
665;SDS011;315;48.738;9.126;2022-08-19T11:23:53;16.77;;;15.27;;
665;SDS011;315;48.738;9.126;2022-08-19T11:26:21;15.43;;;13.87;;
665;SDS011;315;48.738;9.126;2022-08-19T11:28:47;17.10;;;15.50;;
665;SDS011;315;48.738;9.126;2022-08-19T11:31:19;15.30;;;14.10;;
665;SDS011;315;48.738;9.126;2022-08-19T11:33:46;16.03;;;14.57;;
665;SDS011;315;48.738;9.126;2022-08-19T11:36:15;14.80;;;13.60;;
665;SDS011;315;48.738;9.126;2022-08-19T11:38:41;16.03;;;14.57;;
665;SDS011;315;48.738;9.126;2022-08-19T11:41:07;14.43;;;13.20;;
665;SDS011;315;48.738;9.126;2022-08-19T11:43:33;14.73;;;13.43;;
665;SDS011;315;48.738;9.126;2022-08-19T11:46:03;15.37;;;13.87;;
665;SDS011;315;48.738;9.126;2022-08-19T11:48:31;14.97;;;13.77;;
665;SDS011;315;48.738;9.126;2022-08-19T11:50:57;15.20;;;13.93;;
665;SDS011;315;48.738;9.126;2022-08-19T11:53:23;15.23;;;13.63;;
665;SDS011;315;48.738;9.126;2022-08-19T11:55:50;15.73;;;14.43;;
665;SDS011;315;48.738;9.126;2022-08-19T11:58:21;15.17;;;13.87;;
665;SDS011;315;48.738;9.126;2022-08-19T12:00:46;14.63;;;13.30;;
665;SDS011;315;48.738;9.126;2022-08-19T12:03:12;14.60;;;13.33;;
665;SDS011;315;48.738;9.126;2022-08-19T12:05:38;13.57;;;12.47;;
665;SDS011;315;48.738;9.126;2022-08-19T12:08:04;14.80;;;13.07;;
665;SDS011;315;48.738;9.126;2022-08-19T12:10:31;14.40;;;12.97;;
665;SDS011;315;48.738;9.126;2022-08-19T12:12:57;13.73;;;12.57;;
665;SDS011;315;48.738;9.126;2022-08-19T12:15:22;13.80;;;12.60;;
665;SDS011;315;48.738;9.126;2022-08-19T12:17:48;13.17;;;12.07;;
665;SDS011;315;48.738;9.126;2022-08-19T12:20:14;13.33;;;12.33;;
665;SDS011;315;48.738;9.126;2022-08-19T12:22:41;13.47;;;12.37;;
665;SDS011;315;48.738;9.126;2022-08-19T12:25:09;13.33;;;11.93;;
665;SDS011;315;48.738;9.126;2022-08-19T12:27:36;13.30;;;12.20;;
665;SDS011;315;48.738;9.126;2022-08-19T12:30:03;13.93;;;12.70;;
665;SDS011;315;48.738;9.126;2022-08-19T12:32:29;14.10;;;12.87;;
665;SDS011;315;48.738;9.126;2022-08-19T12:34:55;14.77;;;13.57;;
665;SDS011;315;48.738;9.126;2022-08-19T12:37:20;14.30;;;12.83;;
665;SDS011;315;48.738;9.126;2022-08-19T12:39:46;13.67;;;12.57;;
665;SDS011;315;48.738;9.126;2022-08-19T12:42:12;13.70;;;12.50;;
665;SDS011;315;48.738;9.126;2022-08-19T12:44:42;12.50;;;11.30;;
665;SDS011;315;48.738;9.126;2022-08-19T12:47:08;13.90;;;12.60;;
665;SDS011;315;48.738;9.126;2022-08-19T12:49:35;13.10;;;12.00;;
665;SDS011;315;48.738;9.126;2022-08-19T12:52:03;13.30;;;12.20;;
665;SDS011;315;48.738;9.126;2022-08-19T12:54:29;13.07;;;11.97;;
665;SDS011;315;48.738;9.126;2022-08-19T12:56:56;13.17;;;11.93;;
665;SDS011;315;48.738;9.126;2022-08-19T12:59:22;12.60;;;11.40;;
665;SDS011;315;48.738;9.126;2022-08-19T13:01:49;12.40;;;11.20;;
665;SDS011;315;48.738;9.126;2022-08-19T13:04:15;13.57;;;12.50;;
665;SDS011;315;48.738;9.126;2022-08-19T13:06:41;17.33;;;15.93;;
665;SDS011;315;48.738;9.126;2022-08-19T13:09:07;20.60;;;18.80;;
665;SDS011;315;48.738;9.126;2022-08-19T13:11:33;20.97;;;19.07;;
665;SDS011;315;48.738;9.126;2022-08-19T13:14:00;21.17;;;19.17;;
665;SDS011;315;48.738;9.126;2022-08-19T13:16:27;26.30;;;23.80;;
665;SDS011;315;48.738;9.126;2022-08-19T13:18:53;25.47;;;23.07;;
665;SDS011;315;48.738;9.126;2022-08-19T13:21:21;25.87;;;23.57;;
665;SDS011;315;48.738;9.126;2022-08-19T13:23:48;27.67;;;24.97;;
665;SDS011;315;48.738;9.126;2022-08-19T13:26:14;27.93;;;25.30;;
665;SDS011;315;48.738;9.126;2022-08-19T13:28:41;25.80;;;23.60;;
665;SDS011;315;48.738;9.126;2022-08-19T13:31:26;30.80;;;27.90;;
665;SDS011;315;48.738;9.126;2022-08-19T13:34:12;29.63;;;27.13;;
665;SDS011;315;48.738;9.126;2022-08-19T13:36:38;30.83;;;28.03;;
665;SDS011;315;48.738;9.126;2022-08-19T13:39:05;33.07;;;29.50;;
665;SDS011;315;48.738;9.126;2022-08-19T13:41:32;32.77;;;29.60;;
665;SDS011;315;48.738;9.126;2022-08-19T13:43:58;33.90;;;30.63;;
665;SDS011;315;48.738;9.126;2022-08-19T13:46:24;32.20;;;28.90;;
665;SDS011;315;48.738;9.126;2022-08-19T13:48:49;32.47;;;29.30;;
665;SDS011;315;48.738;9.126;2022-08-19T13:51:16;33.03;;;30.00;;
665;SDS011;315;48.738;9.126;2022-08-19T13:53:42;31.00;;;28.00;;
665;SDS011;315;48.738;9.126;2022-08-19T13:56:09;32.47;;;29.57;;
665;SDS011;315;48.738;9.126;2022-08-19T13:58:37;33.53;;;30.43;;
665;SDS011;315;48.738;9.126;2022-08-19T14:01:05;32.50;;;29.43;;
665;SDS011;315;48.738;9.126;2022-08-19T14:03:34;35.03;;;31.67;;
665;SDS011;315;48.738;9.126;2022-08-19T14:06:00;32.10;;;29.07;;
665;SDS011;315;48.738;9.126;2022-08-19T14:08:27;33.67;;;28.63;;
665;SDS011;315;48.738;9.126;2022-08-19T14:10:53;30.57;;;27.67;;
665;SDS011;315;48.738;9.126;2022-08-19T14:13:20;32.33;;;29.23;;
665;SDS011;315;48.738;9.126;2022-08-19T14:15:47;29.67;;;26.97;;
665;SDS011;315;48.738;9.126;2022-08-19T14:18:13;32.10;;;28.50;;
665;SDS011;315;48.738;9.126;2022-08-19T14:20:40;31.23;;;28.37;;
665;SDS011;315;48.738;9.126;2022-08-19T14:23:06;28.90;;;26.20;;
665;SDS011;315;48.738;9.126;2022-08-19T14:25:31;30.17;;;27.40;;
665;SDS011;315;48.738;9.126;2022-08-19T14:27:58;32.80;;;29.70;;
665;SDS011;315;48.738;9.126;2022-08-19T14:30:28;31.47;;;28.67;;
665;SDS011;315;48.738;9.126;2022-08-19T14:32:57;30.97;;;28.00;;
665;SDS011;315;48.738;9.126;2022-08-19T14:35:24;30.73;;;27.93;;
665;SDS011;315;48.738;9.126;2022-08-19T14:37:51;32.00;;;28.90;;
665;SDS011;315;48.738;9.126;2022-08-19T14:40:20;27.87;;;25.47;;
665;SDS011;315;48.738;9.126;2022-08-19T14:42:51;25.77;;;23.37;;
665;SDS011;315;48.738;9.126;2022-08-19T14:45:17;33.13;;;26.67;;
665;SDS011;315;48.738;9.126;2022-08-19T14:47:43;27.53;;;25.10;;
665;SDS011;315;48.738;9.126;2022-08-19T14:50:09;26.80;;;24.30;;
665;SDS011;315;48.738;9.126;2022-08-19T14:52:36;28.43;;;25.87;;
665;SDS011;315;48.738;9.126;2022-08-19T14:55:02;26.80;;;24.20;;
665;SDS011;315;48.738;9.126;2022-08-19T14:57:28;26.63;;;24.07;;
665;SDS011;315;48.738;9.126;2022-08-19T14:59:54;26.17;;;23.70;;
665;SDS011;315;48.738;9.126;2022-08-19T15:02:21;22.80;;;20.90;;
665;SDS011;315;48.738;9.126;2022-08-19T15:04:46;26.80;;;24.60;;
665;SDS011;315;48.738;9.126;2022-08-19T15:07:12;26.67;;;24.30;;
665;SDS011;315;48.738;9.126;2022-08-19T15:09:38;24.53;;;22.33;;
665;SDS011;315;48.738;9.126;2022-08-19T15:12:03;24.83;;;22.67;;
665;SDS011;315;48.738;9.126;2022-08-19T15:14:29;25.50;;;23.20;;
665;SDS011;315;48.738;9.126;2022-08-19T15:17:00;23.93;;;21.83;;
665;SDS011;315;48.738;9.126;2022-08-19T15:19:27;22.43;;;20.53;;
665;SDS011;315;48.738;9.126;2022-08-19T15:21:53;22.97;;;21.13;;
665;SDS011;315;48.738;9.126;2022-08-19T15:24:19;23.00;;;21.10;;
665;SDS011;315;48.738;9.126;2022-08-19T15:26:45;20.70;;;18.97;;
665;SDS011;315;48.738;9.126;2022-08-19T15:29:11;21.33;;;19.43;;